Time;durP1;ratioP1;P1;durP2;ratioP2;P2;SDS_P1;SDS_P2;PMS_P1;PMS_P2;Temp;Humidity;BMP_temperature;BMP_pressure;BME280_temperature;BME280_humidity;BME280_pressure;Samples;Min_cycle;Max_cycle;Signal;HPM_P1;HPM_P2
2023/10/16 00:02:13;;;;;;;;;2.67;2.00;;;;;12.67;100.00;102017.38;5098247;27;45338;-72
2023/10/16 00:04:46;;;;;;;;;1.33;1.00;;;;;12.65;100.00;102008.50;5096158;27;45618;-73
2023/10/16 00:07:15;;;;;;;;;2.00;2.00;;;;;12.62;100.00;102001.38;5090747;27;46760;-73
2023/10/16 00:09:41;;;;;;;;;4.67;1.00;;;;;12.65;100.00;102011.16;5097397;27;45445;-73
2023/10/16 00:12:07;;;;;;;;;1.00;1.00;;;;;12.64;100.00;102007.63;5091411;27;45540;-73
2023/10/16 00:14:35;;;;;;;;;1.00;1.00;;;;;12.62;100.00;102009.31;5092019;27;45369;-73
2023/10/16 00:17:07;;;;;;;;;1.00;1.00;;;;;12.59;100.00;102002.22;5085740;27;47590;-76
2023/10/16 00:19:33;;;;;;;;;1.00;1.00;;;;;12.61;100.00;102011.94;5093865;27;45397;-73
2023/10/16 00:22:00;;;;;;;;;3.00;1.33;;;;;12.55;100.00;102002.09;5097859;27;45304;-72
2023/10/16 00:24:25;;;;;;;;;2.00;2.00;;;;;12.58;100.00;102003.06;5094402;27;45410;-73
2023/10/16 00:26:51;;;;;;;;;1.67;1.67;;;;;12.51;100.00;101995.84;5096266;27;45545;-73
2023/10/16 00:29:19;;;;;;;;;1.33;1.00;;;;;12.51;100.00;101995.84;5094949;27;59872;-72
2023/10/16 00:31:51;;;;;;;;;2.00;1.00;;;;;12.51;100.00;101987.88;5093233;27;45546;-73
2023/10/16 00:34:19;;;;;;;;;2.00;1.00;;;;;12.52;100.00;101994.09;5089744;27;45312;-73
2023/10/16 00:36:46;;;;;;;;;1.00;1.00;;;;;12.50;100.00;101991.41;5097412;27;46643;-73
2023/10/16 00:39:14;;;;;;;;;1.33;1.33;;;;;12.48;100.00;101990.50;5092125;27;45355;-73
2023/10/16 00:41:44;;;;;;;;;3.00;1.00;;;;;12.46;100.00;101992.19;5095467;27;45328;-72
2023/10/16 00:44:09;;;;;;;;;2.00;2.00;;;;;12.40;100.00;101977.94;5097705;27;45497;-73
2023/10/16 00:46:38;;;;;;;;;1.00;1.00;;;;;12.42;100.00;101985.06;5089149;27;46189;-73
2023/10/16 00:49:06;;;;;;;;;1.00;1.00;;;;;12.42;100.00;101993.00;5097361;27;45416;-73
2023/10/16 00:51:38;;;;;;;;;4.33;1.00;;;;;12.42;100.00;101977.13;5096948;27;45391;-73
2023/10/16 00:54:16;;;;;;;;;2.00;1.00;;;;;12.34;100.00;101970.75;5088765;27;45325;-73
2023/10/16 00:56:43;;;;;;;;;4.00;1.00;;;;;12.38;100.00;101987.59;5090073;27;47425;-73
2023/10/16 00:59:08;;;;;;;;;1.00;1.00;;;;;12.32;100.00;101981.31;5091673;27;45451;-74
2023/10/16 01:01:43;;;;;;;;;3.00;1.00;;;;;12.35;100.00;101984.88;5095470;27;58408;-74
2023/10/16 01:04:09;;;;;;;;;2.00;2.00;;;;;12.33;100.00;101976.91;5094926;27;45604;-73
2023/10/16 01:06:37;;;;;;;;;2.00;1.67;;;;;12.33;100.00;101974.25;5095939;27;46571;-74
2023/10/16 01:09:12;;;;;;;;;1.00;1.00;;;;;12.32;100.00;101981.31;5094880;27;45493;-72
2023/10/16 01:11:37;;;;;;;;;1.00;1.00;;;;;12.30;100.00;101971.53;5089971;27;45163;-75
2023/10/16 01:14:06;;;;;;;;;1.33;1.00;;;;;12.24;100.00;101967.00;5084363;27;64339;-72
2023/10/16 01:16:31;;;;;;;;;1.67;1.00;;;;;12.27;100.00;101966.19;5091377;27;46732;-72
2023/10/16 01:19:00;;;;;;;;;6.67;1.00;;;;;12.22;100.00;101965.19;5088817;27;45793;-74
2023/10/16 01:21:31;;;;;;;;;1.00;1.00;;;;;12.20;100.00;101964.28;5095633;27;45596;-74
2023/10/16 01:24:02;;;;;;;;;1.00;1.00;;;;;12.18;100.00;101958.03;5094146;27;45319;-75
2023/10/16 01:26:28;;;;;;;;;3.67;2.00;;;;;12.21;100.00;101966.94;5089476;27;46657;-73
2023/10/16 01:28:54;;;;;;;;;1.00;1.00;;;;;12.22;100.00;101960.78;5095065;27;45523;-74
2023/10/16 01:31:21;;;;;;;;;4.00;2.67;;;;;12.22;100.00;101962.53;5096898;27;45399;-73
2023/10/16 01:33:47;;;;;;;;;1.00;1.00;;;;;12.21;100.00;101952.81;5090263;27;45446;-75
2023/10/16 01:36:13;;;;;;;;;1.33;1.33;;;;;12.18;100.00;101947.44;5096049;27;46314;-72
2023/10/16 01:38:39;;;;;;;;;1.00;1.00;;;;;12.13;100.00;101942.03;5096608;27;45434;-74
2023/10/16 01:41:13;;;;;;;;;2.00;2.00;;;;;12.16;100.00;101944.75;5096700;27;45294;-75
2023/10/16 01:43:39;;;;;;;;;1.25;1.25;;;;;12.16;100.00;101946.53;5095991;27;45472;-73
2023/10/16 01:46:08;;;;;;;;;1.00;1.00;;;;;12.17;100.00;101946.53;5096453;27;46875;-72
2023/10/16 01:48:34;;;;;;;;;1.00;1.00;;;;;12.16;100.00;101951.81;5095163;27;45291;-73
2023/10/16 01:51:01;;;;;;;;;2.00;1.33;;;;;12.09;100.00;101945.50;5090478;27;45547;-74
2023/10/16 01:53:32;;;;;;;;;2.00;1.00;;;;;12.08;100.00;101943.69;5092726;27;46352;-73
2023/10/16 01:55:57;;;;;;;;;2.33;1.00;;;;;12.07;100.00;101940.13;5095630;27;46435;-75
2023/10/16 01:58:24;;;;;;;;;2.67;2.00;;;;;12.09;100.00;101948.13;5087396;27;71260;-76
2023/10/16 02:00:52;;;;;;;;;2.67;1.00;;;;;12.05;100.00;101944.53;5094434;27;45442;-73
2023/10/16 02:03:18;;;;;;;;;3.00;2.00;;;;;12.02;100.00;101938.25;5097230;27;45325;-73
2023/10/16 02:05:46;;;;;;;;;0.33;0.00;;;;;12.04;100.00;101931.25;5084630;27;46512;-72
2023/10/16 02:08:15;;;;;;;;;2.00;2.00;;;;;11.99;100.00;101927.63;5093690;27;45350;-75
2023/10/16 02:10:42;;;;;;;;;2.00;2.00;;;;;11.98;100.00;101918.75;5094254;27;45426;-73
2023/10/16 02:13:10;;;;;;;;;3.00;1.00;;;;;12.01;100.00;101925.88;5096594;27;45473;-72
2023/10/16 02:15:36;;;;;;;;;1.00;1.00;;;;;11.96;100.00;101919.59;5097534;27;47524;-72
2023/10/16 02:18:18;;;;;;;;;6.00;2.67;;;;;11.97;100.00;101922.25;5090341;27;45389;-73
2023/10/16 02:20:46;;;;;;;;;1.00;1.00;;;;;11.96;100.00;101923.13;5094355;27;45468;-72
2023/10/16 02:23:12;;;;;;;;;3.00;1.75;;;;;11.95;100.00;101912.50;5091516;27;45474;-72
2023/10/16 02:25:37;;;;;;;;;3.00;2.00;;;;;11.91;100.00;101908.88;5086859;27;45927;-73
2023/10/16 02:28:07;;;;;;;;;2.67;1.00;;;;;11.89;100.00;101907.97;5089958;27;45478;-74
2023/10/16 02:30:36;;;;;;;;;1.00;1.00;;;;;11.84;100.00;101901.69;5096421;27;45533;-75
2023/10/16 02:35:50;;;;;;;;;2.00;2.00;;;;;11.83;100.00;101893.72;5098430;27;45513;-74
2023/10/16 02:38:23;;;;;;;;;1.67;1.00;;;;;11.83;100.00;101905.19;5093074;27;45395;-72
2023/10/16 02:40:51;;;;;;;;;2.00;2.00;;;;;11.78;100.00;101905.03;5090334;27;45485;-72
2023/10/16 02:43:18;;;;;;;;;2.00;1.00;;;;;11.76;100.00;101890.88;5099747;27;45469;-73
2023/10/16 02:45:47;;;;;;;;;1.00;1.00;;;;;11.77;100.00;101899.69;5091870;27;47539;-73
2023/10/16 02:48:16;;;;;;;;;3.00;1.33;;;;;11.76;100.00;101905.84;5097177;27;45449;-74
2023/10/16 02:50:43;;;;;;;;;4.00;1.00;;;;;11.72;100.00;101904.91;5097861;27;45593;-73
2023/10/16 02:53:11;;;;;;;;;2.00;1.00;;;;;11.71;100.00;101907.50;5096904;27;45808;-72
2023/10/16 02:55:40;;;;;;;;;1.00;1.00;;;;;11.67;100.00;101910.94;5093135;27;47442;-72
2023/10/16 02:58:11;;;;;;;;;6.00;1.25;;;;;11.65;100.00;101908.25;5095121;27;45589;-73
2023/10/16 03:00:38;;;;;;;;;1.33;1.33;;;;;11.60;100.00;101911.63;5094107;27;45490;-74
2023/10/16 03:03:06;;;;;;;;;4.00;1.00;;;;;11.53;100.00;101903.56;5098452;27;45529;-73
2023/10/16 03:05:32;;;;;;;;;2.00;2.00;;;;;11.52;100.00;101904.44;5097801;27;46854;-72
2023/10/16 03:07:57;;;;;;;;;4.00;1.33;;;;;11.54;100.00;101905.34;5099085;27;45481;-72
2023/10/16 03:10:23;;;;;;;;;6.00;2.00;;;;;11.54;100.00;101904.44;5098956;27;49108;-73
2023/10/16 03:12:49;;;;;;;;;1.67;1.00;;;;;11.51;100.00;101896.47;5096077;27;62515;-74
2023/10/16 03:15:31;;;;;;;;;3.67;1.00;;;;;11.51;100.00;101899.09;5097815;27;46233;-72
2023/10/16 03:17:56;;;;;;;;;3.00;2.00;;;;;11.47;100.00;101899.88;5097758;27;45493;-74
2023/10/16 03:20:28;;;;;;;;;2.75;1.50;;;;;11.42;100.00;101899.75;5098982;27;45370;-73
2023/10/16 03:22:54;;;;;;;;;3.00;3.00;;;;;11.42;100.00;101893.59;5099143;27;45171;-73
2023/10/16 03:25:50;;;;;;;;;2.00;0.00;;;;;11.38;100.00;101897.00;5097482;27;45649;-73
2023/10/16 03:28:11;;;;;;;;;1.00;1.00;;;;;11.34;100.00;101888.09;5087418;27;45456;-72
2023/10/16 03:30:37;;;;;;;;;1.00;1.00;;;;;11.33;100.00;101881.03;5098063;27;45254;-73
2023/10/16 03:33:03;;;;;;;;;0.50;0.50;;;;;11.25;100.00;101879.94;5092828;27;45642;-73
2023/10/16 03:35:32;;;;;;;;;4.50;2.00;;;;;11.33;100.00;101891.59;5088927;27;46509;-72
2023/10/16 03:37:58;;;;;;;;;4.50;1.75;;;;;11.32;100.00;101888.94;5092175;27;45399;-75
2023/10/16 03:40:27;;;;;;;;;2.50;1.00;;;;;11.25;100.00;101869.38;5099001;27;45295;-72
2023/10/16 03:42:56;;;;;;;;;1.00;1.00;;;;;11.31;100.00;101884.50;5098365;27;45528;-72
2023/10/16 03:45:21;;;;;;;;;1.67;1.67;;;;;11.29;100.00;101884.44;5086855;27;46215;-73
2023/10/16 03:47:51;;;;;;;;;2.50;2.50;;;;;11.30;100.00;101888.00;5096031;27;71691;-74
2023/10/16 03:50:23;;;;;;;;;1.00;1.00;;;;;11.23;100.00;101881.66;5094435;27;45318;-72
2023/10/16 03:52:55;;;;;;;;;1.25;1.25;;;;;11.30;100.00;101893.28;5096524;27;45466;-74
2023/10/16 03:55:24;;;;;;;;;1.50;1.50;;;;;11.26;100.00;101890.56;5097721;27;46565;-75
2023/10/16 03:57:53;;;;;;;;;3.00;1.75;;;;;11.27;100.00;101892.34;5092693;27;45510;-73
2023/10/16 04:00:26;;;;;;;;;3.00;1.75;;;;;11.29;100.00;101889.72;5090769;27;45361;-73
2023/10/16 04:02:51;;;;;;;;;3.00;2.00;;;;;11.23;100.00;101881.66;5093140;27;46698;-73
2023/10/16 04:08:01;;;;;;;;;4.75;3.00;;;;;11.19;100.00;101885.09;5098034;27;45428;-71
2023/10/16 04:10:29;;;;;;;;;2.00;2.00;;;;;11.16;100.00;101885.00;5098556;27;45261;-73
2023/10/16 04:12:55;;;;;;;;;3.00;1.00;;;;;11.16;100.00;101883.25;5097262;27;45236;-71
2023/10/16 04:18:04;;;;;;;;;2.25;1.75;;;;;11.12;100.00;101886.66;5098229;27;45328;-74
2023/10/16 04:20:43;;;;;;;;;5.00;2.00;;;;;11.09;100.00;101880.41;5089687;27;45560;-72
2023/10/16 04:23:21;;;;;;;;;3.25;3.25;;;;;11.10;100.00;101888.38;5095402;27;45419;-73
2023/10/16 04:26:28;;;;;;;;;3.00;1.00;;;;;11.12;100.00;101891.06;5093242;27;47453;-73
2023/10/16 04:29:20;;;;;;;;;6.00;2.50;;;;;11.07;100.00;101893.56;5093838;27;45407;-74
2023/10/16 04:31:43;;;;;;;;;5.00;1.00;;;;;11.06;100.00;101893.53;5089647;27;45565;-73
2023/10/16 04:37:24;;;;;;;;;5.75;2.00;;;;;11.02;100.00;101874.97;5097526;27;46609;-74
2023/10/16 04:50:37;;;;;;;;;4.00;2.75;;;;;11.04;100.00;101868.84;5095659;27;45535;-73
2023/10/16 04:53:09;;;;;;;;;2.00;1.00;;;;;11.07;100.00;101863.63;5087340;27;45369;-73
2023/10/16 05:01:17;;;;;;;;;3.00;1.75;;;;;11.11;100.00;101850.50;5092905;27;45285;-73
2023/10/16 06:14:14;;;;;;;;;3.75;3.75;;;;;11.18;100.00;101841.88;5095528;27;45532;-70
2023/10/16 06:16:47;;;;;;;;;7.00;4.25;;;;;11.17;100.00;101833.91;5091617;27;45564;-71
2023/10/16 06:19:19;;;;;;;;;7.00;5.00;;;;;11.19;100.00;101840.16;5095764;27;45577;-72
2023/10/16 06:21:57;;;;;;;;;6.00;3.00;;;;;11.20;100.00;101839.28;5094430;27;45497;-72
2023/10/16 06:24:33;;;;;;;;;3.25;3.00;;;;;11.25;100.00;101845.59;5094819;27;47555;-71
2023/10/16 06:27:11;;;;;;;;;10.00;3.00;;;;;11.24;100.00;101836.75;5086872;27;46163;-72
2023/10/16 06:29:49;;;;;;;;;6.25;3.75;;;;;11.25;100.00;101837.66;5091798;27;45839;-72
2023/10/16 06:32:35;;;;;;;;;8.00;4.00;;;;;11.30;100.00;101841.31;5093174;27;45607;-73
2023/10/16 06:35:18;;;;;;;;;7.50;4.25;;;;;11.34;100.00;101843.13;5086735;27;46005;-71
2023/10/16 06:37:51;;;;;;;;;4.50;4.50;;;;;11.35;100.00;101831.72;5089414;27;45501;-73
2023/10/16 06:40:26;;;;;;;;;8.25;7.00;;;;;11.37;100.00;101834.41;5096034;27;45331;-73
2023/10/16 06:43:09;;;;;;;;;9.25;4.00;;;;;11.37;100.00;101837.03;5090610;27;45486;-71
2023/10/16 06:45:41;;;;;;;;;7.75;6.00;;;;;11.40;100.00;101832.75;5092587;27;46662;-73
2023/10/16 06:48:14;;;;;;;;;11.25;6.75;;;;;11.43;100.00;101830.16;5094278;27;45527;-73
2023/10/16 06:50:45;;;;;;;;;7.50;7.25;;;;;11.45;100.00;101830.16;5092148;27;45400;-72
2023/10/16 06:53:11;;;;;;;;;7.75;5.50;;;;;11.45;100.00;101833.75;5094954;27;46866;-73
2023/10/16 06:55:36;;;;;;;;;10.00;8.50;;;;;11.48;100.00;101844.38;5093985;27;46645;-73
2023/10/16 06:58:02;;;;;;;;;4.00;4.00;;;;;11.50;100.00;101831.19;5096382;27;64748;-73
2023/10/16 07:00:27;;;;;;;;;10.50;7.75;;;;;11.54;100.00;101833.94;5094502;27;48888;-73
2023/10/16 07:02:54;;;;;;;;;7.25;6.00;;;;;11.53;100.00;101829.50;5097190;27;45471;-73
2023/10/16 07:05:24;;;;;;;;;11.25;6.50;;;;;11.54;100.00;101836.56;5093730;27;46808;-72
2023/10/16 07:07:52;;;;;;;;;6.25;4.00;;;;;11.62;100.00;101833.22;5094839;27;45576;-72
2023/10/16 07:10:17;;;;;;;;;7.00;6.75;;;;;11.62;100.00;101828.84;5093035;27;45503;-73
2023/10/16 07:13:02;;;;;;;;;4.50;4.50;;;;;11.65;100.00;101822.69;5095418;27;45449;-73
2023/10/16 07:15:31;;;;;;;;;4.75;3.00;;;;;11.67;100.00;101821.91;5095667;27;47410;-73
2023/10/16 07:18:04;;;;;;;;;4.00;4.00;;;;;11.69;100.00;101822.81;5093160;27;45572;-72
2023/10/16 07:20:30;;;;;;;;;6.75;6.50;;;;;11.68;100.00;101810.44;5088345;27;45476;-73
2023/10/16 07:22:59;;;;;;;;;6.25;4.00;;;;;11.76;100.00;101814.13;5095350;27;45479;-72
2023/10/16 07:25:37;;;;;;;;;4.00;3.00;;;;;11.82;100.00;101818.69;5092895;27;46415;-73
2023/10/16 07:28:09;;;;;;;;;7.75;6.00;;;;;11.87;100.00;101835.56;5094172;27;45540;-72
2023/10/16 07:30:35;;;;;;;;;6.00;6.00;;;;;11.91;100.00;101826.84;5093737;27;45513;-73
2023/10/16 07:33:01;;;;;;;;;5.50;3.00;;;;;11.96;100.00;101835.78;5095175;27;45574;-73
2023/10/16 07:35:27;;;;;;;;;6.00;6.00;;;;;11.97;100.00;101828.72;5094233;27;46411;-74
2023/10/16 07:37:55;;;;;;;;;7.75;4.00;;;;;12.00;100.00;101824.41;5091170;27;45603;-73
2023/10/16 07:40:21;;;;;;;;;8.50;5.00;;;;;12.03;100.00;101831.50;5092401;27;45550;-73
2023/10/16 07:42:47;;;;;;;;;6.00;6.00;;;;;12.06;100.00;101835.13;5096564;27;45583;-73
2023/10/16 07:45:13;;;;;;;;;6.25;4.00;;;;;12.10;100.00;101836.09;5090898;27;46630;-73
2023/10/16 07:47:38;;;;;;;;;4.75;4.75;;;;;12.17;100.00;101837.09;5095249;27;45446;-73
2023/10/16 07:50:04;;;;;;;;;8.00;5.00;;;;;12.19;100.00;101833.59;5089733;27;45870;-74
2023/10/16 07:52:33;;;;;;;;;3.00;3.00;;;;;12.23;100.00;101831.91;5092070;27;45408;-74
2023/10/16 07:54:58;;;;;;;;;9.75;6.00;;;;;12.27;100.00;101836.41;5095106;27;46361;-72
2023/10/16 07:57:24;;;;;;;;;10.75;8.00;;;;;12.33;100.00;101842.72;5092954;27;55115;-72
2023/10/16 07:59:54;;;;;;;;;10.25;7.25;;;;;12.35;100.00;101840.09;5094229;27;49989;-71
2023/10/16 08:02:20;;;;;;;;;9.25;5.25;;;;;12.38;100.00;101831.34;5096027;27;45322;-73
2023/10/16 08:04:51;;;;;;;;;7.25;7.25;;;;;12.41;100.00;101831.38;5093515;27;46469;-72
2023/10/16 08:07:18;;;;;;;;;7.50;7.00;;;;;12.46;100.00;101840.31;5095046;27;45496;-72
2023/10/16 08:14:54;;;;;;;;;9.50;7.00;;;;;12.57;100.00;101818.47;5094041;27;45518;-74
2023/10/16 08:17:23;;;;;;;;;8.75;5.25;;;;;12.68;100.00;101826.63;5093929;27;45395;-75
2023/10/16 08:19:50;;;;;;;;;5.50;5.50;;;;;12.74;100.00;101826.72;5091973;27;45573;-73
2023/10/16 08:22:15;;;;;;;;;10.25;7.00;;;;;12.78;100.00;101815.34;5091751;27;46402;-72
2023/10/16 08:24:58;;;;;;;;;7.00;7.00;;;;;12.82;100.00;101806.53;5097100;27;46808;-72
2023/10/16 08:30:19;;;;;;;;;13.50;4.00;;;;;12.97;100.00;101800.63;5093302;27;45454;-73
2023/10/16 08:35:20;;;;;;;;;4.50;4.50;;;;;13.06;100.00;101807.84;5089484;27;45543;-73
2023/10/16 08:37:56;;;;;;;;;5.00;4.00;;;;;13.09;100.00;101798.16;5091658;27;45494;-75
2023/10/16 08:40:34;;;;;;;;;8.00;5.00;;;;;13.12;100.00;101792.03;5095975;27;45662;-73
2023/10/16 08:43:01;;;;;;;;;7.25;4.75;;;;;13.19;100.00;101791.25;5091678;27;45458;-73
2023/10/16 08:45:32;;;;;;;;;4.67;4.67;;;;;13.22;100.00;101794.00;5093920;27;46963;-73
2023/10/16 08:47:58;;;;;;;;;7.50;6.50;;;;;13.23;100.00;101792.22;5094209;27;45421;-73
2023/10/16 08:50:40;;;;;;;;;6.50;4.25;;;;;13.25;100.00;101772.81;5093871;27;45392;-72
2023/10/16 08:53:17;;;;;;;;;8.00;5.50;;;;;13.29;100.00;101763.16;5088661;27;47282;-72
2023/10/16 08:55:44;;;;;;;;;9.00;4.00;;;;;13.29;100.00;101768.44;5093111;27;46549;-74
2023/10/16 08:58:11;;;;;;;;;7.25;5.00;;;;;13.29;100.00;101750.78;5093493;27;45457;-75
2023/10/16 09:00:38;;;;;;;;;7.50;5.25;;;;;13.29;100.00;101744.56;5091164;27;45559;-72
2023/10/16 09:03:05;;;;;;;;;5.00;5.00;;;;;13.27;100.00;101739.25;5095301;27;45688;-71
2023/10/16 09:05:30;;;;;;;;;11.33;4.33;;;;;13.27;100.00;101744.56;5088317;27;69794;-72
2023/10/16 09:07:56;;;;;;;;;8.67;5.67;;;;;13.30;100.00;101749.00;5094411;27;64121;-71
2023/10/16 09:10:22;;;;;;;;;5.67;5.00;;;;;13.30;100.00;101749.00;5095431;27;45536;-73
2023/10/16 09:12:54;;;;;;;;;4.00;4.00;;;;;13.30;100.00;101744.59;5085514;27;45466;-72
2023/10/16 09:15:24;;;;;;;;;5.33;3.00;;;;;13.36;100.00;101742.03;5095199;27;47353;-73
2023/10/16 09:17:51;;;;;;;;;4.33;4.33;;;;;13.43;100.00;101750.09;5094491;27;45558;-73
2023/10/16 09:20:22;;;;;;;;;3.00;3.00;;;;;13.46;100.00;101747.47;5094979;27;45403;-73
2023/10/16 09:22:48;;;;;;;;;4.33;3.00;;;;;13.49;100.00;101748.41;5088844;27;45360;-73
2023/10/16 09:25:16;;;;;;;;;5.00;4.00;;;;;13.56;100.00;101739.66;5090050;27;46280;-72
2023/10/16 09:27:42;;;;;;;;;4.67;4.67;;;;;13.62;100.00;101733.53;5089358;27;45410;-73
2023/10/16 09:30:17;;;;;;;;;4.00;4.00;;;;;13.67;100.00;101736.25;5083903;27;46795;-75
2023/10/16 09:32:43;;;;;;;;;5.00;4.00;;;;;13.68;100.00;101730.06;5092049;27;45468;-73
2023/10/16 09:35:13;;;;;;;;;8.00;4.00;;;;;13.74;100.00;101735.44;5096173;27;46193;-72
2023/10/16 09:37:39;;;;;;;;;8.33;3.00;;;;;13.77;100.00;101728.41;5091914;27;45534;-72
2023/10/16 09:43:24;;;;;;;;;6.33;5.00;;;;;13.93;100.00;101721.53;5088626;27;45612;-73
2023/10/16 09:45:49;;;;;;;;;4.00;4.00;;;;;13.98;100.00;101725.13;5093988;27;47560;-71
2023/10/16 09:48:19;;;;;;;;;5.00;3.00;;;;;13.97;100.00;101725.13;5207460;22;45425;-73
2023/10/16 09:50:45;;;;;;;;;5.00;3.00;;;;;13.95;100.00;101709.16;5035550;28;45540;-72
2023/10/16 09:53:11;;;;;;;;;4.33;4.33;;;;;14.00;100.00;101718.06;5037886;28;46045;-71
2023/10/16 09:55:44;;;;;;;;;4.00;4.00;;;;;14.02;100.00;101699.50;5035024;28;46559;-73
2023/10/16 09:58:10;;;;;;;;;4.00;4.00;;;;;14.11;100.00;101708.47;5034499;28;45443;-71
2023/10/16 10:00:38;;;;;;;;;4.00;3.00;;;;;14.16;100.00;101701.41;5038077;28;45315;-73
2023/10/16 10:03:05;;;;;;;;;3.33;3.33;;;;;14.23;100.00;101701.50;5034026;28;45495;-71
2023/10/16 10:05:41;;;;;;;;;10.00;4.33;;;;;14.26;100.00;101699.75;5015285;28;46191;-72
2023/10/16 10:08:27;;;;;;;;;4.00;2.00;;;;;14.28;100.00;101684.72;5019324;28;45511;-75
2023/10/16 10:15:04;;;;;;;;;5.00;4.00;;;;;14.46;100.00;101681.34;4944105;28;45589;-73
2023/10/16 10:17:19;;;;;;;;;3.67;3.67;;;;;14.56;100.00;101677.91;4944537;28;46533;-74
2023/10/16 10:19:46;;;;;;;;;3.00;3.00;;;;;14.58;100.00;101667.28;5006034;28;45517;-72
2023/10/16 10:22:18;;;;;;;;;4.00;3.67;;;;;14.64;100.00;101662.91;5031414;28;45164;-72
2023/10/16 10:25:17;;;;;;;;;5.00;3.33;;;;;14.70;100.00;101667.41;5016415;28;45436;-71
2023/10/16 10:27:43;;;;;;;;;5.00;5.00;;;;;14.75;100.00;101660.31;5025758;28;46934;-74
2023/10/16 10:30:17;;;;;;;;;4.33;3.33;;;;;14.79;100.00;101655.94;5029528;28;45558;-72
2023/10/16 10:32:44;;;;;;;;;3.00;3.00;;;;;14.91;100.00;101658.66;5033856;28;45468;-72
2023/10/16 10:35:29;;;;;;;;;3.67;3.00;;;;;14.97;100.00;101656.06;5034576;28;45508;-72
2023/10/16 10:38:29;;;;;;;;;4.00;4.00;;;;;15.04;100.00;101644.56;5031045;28;47404;-73
2023/10/16 10:41:03;;;;;;;;;3.33;3.33;;;;;15.13;100.00;101639.31;5036802;28;45531;-71
2023/10/16 10:43:48;;;;;;;;;4.00;4.00;;;;;15.18;100.00;101631.34;5030763;28;45753;-72
2023/10/16 10:46:27;;;;;;;;;3.00;3.00;;;;;15.28;100.00;101634.91;5034319;28;45564;-73
2023/10/16 10:48:54;;;;;;;;;3.00;3.00;;;;;15.36;100.00;101638.53;5033994;28;46254;-72
2023/10/16 10:51:20;;;;;;;;;5.00;3.00;;;;;15.42;100.00;101636.75;5031257;28;45376;-72
2023/10/16 10:53:56;;;;;;;;;3.00;3.00;;;;;15.55;100.00;101640.34;5025503;28;45963;-71
2023/10/16 10:56:21;;;;;;;;;3.67;3.00;;;;;15.66;100.00;101648.44;5029052;28;45562;-74
2023/10/16 10:58:48;;;;;;;;;5.67;3.00;;;;;15.71;100.00;101644.91;5027460;28;45588;-72
2023/10/16 11:01:16;;;;;;;;;3.00;3.00;;;;;15.79;100.00;101646.69;5031412;28;45427;-74
2023/10/16 11:03:45;;;;;;;;;3.00;3.00;;;;;15.84;100.00;101635.16;5029426;28;45861;-74
2023/10/16 11:06:18;;;;;;;;;2.67;2.67;;;;;15.92;100.00;101641.38;5027086;28;45739;-73
2023/10/16 11:08:47;;;;;;;;;3.00;3.00;;;;;15.96;100.00;101631.63;5025819;28;46470;-73
2023/10/16 11:11:14;;;;;;;;;4.67;2.67;;;;;15.99;100.00;101618.31;5035644;28;45543;-74
2023/10/16 11:13:49;;;;;;;;;5.00;3.00;;;;;16.06;100.00;101612.09;5017995;28;45540;-73
2023/10/16 11:16:15;;;;;;;;;4.00;2.33;;;;;16.12;100.00;101605.88;5034369;28;45376;-73
2023/10/16 11:18:40;;;;;;;;;2.33;2.33;;;;;16.15;100.00;101601.47;5040001;28;45560;-72
2023/10/16 11:21:07;;;;;;;;;3.33;2.00;;;;;16.17;100.00;101586.34;5040286;28;45653;-73
2023/10/16 11:23:38;;;;;;;;;3.00;2.00;;;;;16.12;100.00;101577.47;5039870;28;45495;-74
2023/10/16 11:26:05;;;;;;;;;1.00;1.00;;;;;16.11;100.00;101574.81;5022757;28;45349;-74
2023/10/16 11:28:35;;;;;;;;;4.00;2.00;;;;;16.11;100.00;101567.69;5043430;28;45804;-73
2023/10/16 11:31:01;;;;;;;;;5.33;4.00;;;;;16.16;100.00;101562.38;5029457;28;45532;-73
2023/10/16 11:33:47;;;;;;;;;3.00;0.00;;;;;16.19;100.00;101557.94;5038294;28;45450;-73
2023/10/16 11:36:16;;;;;;;;;3.67;3.00;;;;;16.19;100.00;101554.38;5039490;28;45412;-72
2023/10/16 11:38:43;;;;;;;;;3.67;3.00;;;;;16.22;100.00;101549.06;5019136;28;45722;-72
2023/10/16 11:41:14;;;;;;;;;4.00;2.00;;;;;16.22;100.00;101538.38;5037049;28;45907;-73
2023/10/16 11:43:52;;;;;;;;;2.00;2.00;;;;;16.20;100.00;101521.53;5020642;28;45436;-74
2023/10/16 11:46:44;;;;;;;;;3.00;2.00;;;;;16.21;100.00;101533.97;5031324;28;45562;-74
2023/10/16 11:51:47;;;;;;;;;4.67;3.00;;;;;16.26;100.00;101540.16;5034610;28;45528;-75
2023/10/16 11:54:19;;;;;;;;;2.33;2.33;;;;;16.28;100.00;101518.84;5038385;28;45567;-73
2023/10/16 11:56:47;;;;;;;;;8.00;3.33;;;;;16.32;100.00;101518.84;5038925;28;45627;-72
2023/10/16 11:59:12;;;;;;;;;3.00;3.00;;;;;16.33;100.00;101515.28;5037046;28;46695;-73
2023/10/16 12:01:38;;;;;;;;;3.00;1.00;;;;;16.37;100.00;101505.50;5049731;28;45423;-72
2023/10/16 12:04:04;;;;;;;;;2.67;2.67;;;;;16.42;100.00;101487.72;5038519;28;59872;-74
2023/10/16 12:06:30;;;;;;;;;2.00;2.00;;;;;16.42;100.00;101482.41;5035869;28;45629;-73
2023/10/16 12:08:55;;;;;;;;;3.00;3.00;;;;;16.53;100.00;101490.38;5041228;28;45767;-74
2023/10/16 12:11:20;;;;;;;;;5.00;1.67;;;;;16.57;100.00;101477.03;5038050;28;69813;-73
2023/10/16 12:13:47;;;;;;;;;3.00;1.00;;;;;16.62;100.00;101477.91;5038144;28;51890;-73
2023/10/16 12:16:12;;;;;;;;;1.00;1.00;;;;;16.65;100.00;101461.88;5033565;28;45635;-73
2023/10/16 12:18:37;;;;;;;;;1.00;1.00;;;;;16.79;100.00;101466.31;5036885;28;68537;-72
2023/10/16 12:21:05;;;;;;;;;1.33;1.33;;;;;16.84;100.00;101473.41;5037036;28;49532;-72
2023/10/16 12:23:38;;;;;;;;;1.00;1.00;;;;;16.86;100.00;101474.25;5045755;28;45414;-71
2023/10/16 12:26:05;;;;;;;;;3.00;1.00;;;;;16.89;100.00;101473.38;5038700;28;45619;-72
2023/10/16 12:28:31;;;;;;;;;2.33;1.00;;;;;16.95;100.00;101479.56;5037742;28;47452;-73
2023/10/16 12:30:57;;;;;;;;;3.00;1.00;;;;;16.90;100.00;101470.69;5031990;28;45656;-72
2023/10/16 12:33:25;;;;;;;;;1.67;0.67;;;;;16.98;100.00;101468.84;5041817;28;45327;-72
2023/10/16 12:35:54;;;;;;;;;1.00;1.00;;;;;17.00;100.00;101468.88;5021870;28;45757;-71
2023/10/16 12:38:20;;;;;;;;;1.00;1.00;;;;;17.03;100.00;101460.84;5039867;28;46348;-72
2023/10/16 12:40:46;;;;;;;;;1.33;1.33;;;;;17.08;99.96;101452.81;5036824;28;45337;-72
2023/10/16 12:43:11;;;;;;;;;6.00;1.00;;;;;17.04;100.00;101422.56;5038841;28;62799;-72
2023/10/16 12:45:39;;;;;;;;;1.00;1.00;;;;;17.13;98.48;101435.88;5039335;28;54475;-73
2023/10/16 12:48:05;;;;;;;;;2.33;1.00;;;;;17.14;97.58;101426.97;5037670;28;46943;-73
2023/10/16 12:50:32;;;;;;;;;0.00;0.00;;;;;17.16;97.07;101434.97;5019093;28;45489;-72
2023/10/16 12:52:58;;;;;;;;;1.00;1.00;;;;;17.19;96.30;101426.94;5039773;28;45894;-73
2023/10/16 12:55:24;;;;;;;;;0.33;0.33;;;;;17.21;96.68;101423.38;5037001;28;46946;-72
2023/10/16 12:57:50;;;;;;;;;1.00;1.00;;;;;17.25;97.01;101424.22;5036958;28;48265;-73
2023/10/16 13:00:26;;;;;;;;;3.00;1.00;;;;;17.27;96.72;101412.66;5035006;28;45345;-72
2023/10/16 13:02:51;;;;;;;;;1.00;1.00;;;;;17.35;96.12;101406.34;5031442;28;45487;-72
2023/10/16 13:05:24;;;;;;;;;2.33;1.00;;;;;17.36;94.91;101402.78;5035766;28;45481;-73
2023/10/16 13:07:50;;;;;;;;;1.33;1.00;;;;;17.41;94.47;101401.84;5035493;28;47575;-73
2023/10/16 13:10:20;;;;;;;;;1.00;1.00;;;;;17.43;94.26;101399.19;5030690;28;45541;-72
2023/10/16 13:12:45;;;;;;;;;1.00;1.00;;;;;17.43;93.73;101401.88;5036994;28;45500;-73
2023/10/16 13:15:15;;;;;;;;;1.00;1.00;;;;;17.40;92.06;101396.53;5013847;28;45554;-71
2023/10/16 13:17:41;;;;;;;;;0.00;0.00;;;;;17.43;92.38;101404.53;5031378;28;47661;-74
2023/10/16 13:20:17;;;;;;;;;0.00;0.00;;;;;17.45;91.75;101392.94;5025332;28;45677;-72
2023/10/16 13:22:42;;;;;;;;;4.00;1.00;;;;;17.40;91.87;101385.84;5034164;28;45211;-73
2023/10/16 13:25:11;;;;;;;;;1.00;1.00;;;;;17.39;91.56;101382.31;5035232;28;45524;-73
2023/10/16 13:27:37;;;;;;;;;0.00;0.00;;;;;17.36;89.84;101366.28;5036429;28;47199;-73